createdAt,value
2016-05-19T08:33:03.045Z,3.5
2016-05-19T08:33:13.202Z,3.5
2016-05-19T08:33:23.202Z,3.5
2016-05-19T08:33:50.376Z,3.5
2016-05-19T08:34:13.204Z,3.5
2016-05-19T08:34:16.391Z,3.5
2016-05-19T08:34:26.344Z,3.5
2016-05-19T08:34:36.344Z,3.5
2016-05-19T08:34:46.348Z,3.5
2016-05-19T08:34:56.364Z,3.5
2016-05-19T08:35:06.380Z,3.5
2016-05-19T08:35:16.270Z,3.5
2016-05-19T08:35:26.395Z,3.5
2016-05-19T08:35:36.395Z,3.5
2016-05-19T08:35:46.413Z,3.5
2016-05-19T08:35:56.413Z,3.5
2016-05-19T08:36:06.428Z,3.5
2016-05-19T08:36:16.444Z,3.5
2016-05-19T08:36:26.444Z,3.5
2016-05-19T08:36:36.444Z,3.5
2016-05-19T08:36:46.463Z,3.5
2016-05-19T08:36:56.463Z,3.5
2016-05-19T08:37:06.478Z,3.5
2016-05-19T08:37:16.478Z,3.5
2016-05-19T08:37:26.478Z,3.5
2016-05-19T08:37:36.494Z,3.5
2016-05-19T08:37:46.512Z,3.5
2016-05-19T08:37:56.512Z,3.5
2016-05-19T08:38:06.527Z,3.5
2016-05-19T08:38:16.574Z,3.5
2016-05-19T08:38:26.996Z,3.5
2016-05-19T08:38:36.543Z,3.5
2016-05-19T08:38:46.561Z,3.5
2016-05-19T08:39:02.765Z,3.5
2016-05-19T08:39:12.874Z,3.5
2016-05-19T08:39:22.749Z,3.5
2016-05-19T08:39:46.954Z,3.5
2016-05-19T08:39:50.157Z,3.5
2016-05-19T08:40:00.173Z,3.5
2016-05-19T08:40:10.173Z,3.5
2016-05-19T09:22:36.567Z,49.5
2016-05-19T09:22:47.054Z,51.1
2016-05-19T09:22:57.679Z,50.9
2016-05-19T09:23:08.445Z,49.9
2016-05-19T09:23:19.414Z,49.5
2016-05-19T09:23:30.070Z,49.1
2016-05-19T09:23:40.917Z,50
2016-05-19T09:23:52.604Z,50.9
2016-05-19T09:24:04.198Z,50.6
2016-05-19T09:24:15.401Z,50.2
2016-05-19T09:24:26.073Z,50.1
2016-05-19T09:24:40.279Z,50
2016-05-19T09:24:50.904Z,49.7
2016-05-19T09:25:01.185Z,49.3
2016-05-19T09:25:11.951Z,49.1
2016-05-19T09:25:22.576Z,48.8
2016-05-19T09:25:33.498Z,48.8
2016-05-19T09:32:32.720Z,49.7
2016-05-19T09:32:43.550Z,49.8
2016-05-19T09:34:13.209Z,49.8
2016-05-19T09:35:10.180Z,49.7
2016-05-19T09:35:20.649Z,49.7
2016-05-19T09:35:31.274Z,49.8
2016-05-19T09:35:41.902Z,49.8
2016-05-19T09:35:52.589Z,49.8
2016-05-19T09:36:03.339Z,50.2
2016-05-19T09:36:14.168Z,50.1
2016-05-19T09:36:25.589Z,50.3
2016-05-19T09:36:36.214Z,50.4
2016-05-19T09:36:46.748Z,50.1
2016-05-19T09:36:57.076Z,50.7
2016-05-19T09:37:10.716Z,50.4
2016-05-19T09:37:21.341Z,50.4
2016-05-19T09:37:31.982Z,50.6
2016-05-19T09:37:42.611Z,50.8
2016-05-19T09:37:53.236Z,50.9
2016-05-19T09:38:03.720Z,51
2016-05-19T09:38:14.345Z,50.6
2016-05-19T09:38:25.127Z,51.8
2016-05-19T09:38:35.892Z,52.2
2016-05-19T09:38:49.223Z,51.2
2016-05-19T09:38:59.255Z,51.3
2016-05-19T09:39:10.473Z,50.7
2016-05-19T09:39:21.348Z,50.6
2016-05-19T09:39:32.036Z,50.3
2016-05-19T09:39:42.741Z,50.2
2016-05-19T09:39:53.350Z,50.2
2016-05-19T09:40:03.819Z,50.3
2016-05-19T09:40:14.757Z,50.6
2016-05-19T09:40:25.382Z,50.7
2016-05-19T09:40:35.850Z,50.3
2016-05-19T09:40:46.494Z,50.5
2016-05-19T09:40:57.197Z,50.2
2016-05-19T09:41:07.775Z,50.4
2016-05-19T09:41:18.400Z,50.7
2016-05-19T09:41:29.025Z,50.9
2016-05-19T09:41:54.168Z,50.4
2016-05-19T09:42:06.793Z,49.9
2016-05-19T10:01:32.328Z,54
2016-05-19T10:01:43.000Z,52.8
2016-05-19T10:02:16.441Z,50.5
2016-05-19T10:02:27.066Z,50.7
2016-05-19T10:03:09.069Z,49.8
2016-05-19T10:03:19.897Z,49.8
2016-05-19T10:03:30.522Z,49.9
2016-05-19T10:03:41.006Z,49.9
2016-05-19T10:03:51.619Z,49.8
2016-05-19T10:04:02.259Z,49.9
2016-05-19T10:04:13.056Z,49.8
2016-05-19T10:04:23.822Z,50.2
2016-05-19T10:04:34.665Z,50.2
2016-05-19T10:04:45.339Z,50.2
2016-05-19T10:04:55.964Z,50
2016-05-19T10:05:06.746Z,50.1
2016-05-19T10:05:17.558Z,50
2016-05-19T10:05:28.386Z,49.9
2016-05-19T10:05:39.011Z,50.2
2016-05-19T10:05:50.014Z,50.7
2016-05-19T10:06:00.639Z,50.5
2016-05-19T10:06:11.170Z,50.8
2016-05-19T10:06:21.686Z,50.6
2016-05-19T10:06:32.499Z,50.7
2016-05-19T10:06:42.983Z,50.5
2016-05-19T10:06:53.470Z,50.8
2016-05-19T10:07:04.111Z,50.6
2016-05-19T10:07:14.720Z,50.7
2016-05-19T10:07:25.345Z,50.7
2016-05-19T10:07:35.986Z,51.2
2016-05-19T10:07:46.661Z,51.4
2016-05-19T10:07:57.270Z,51.4
2016-05-19T10:08:07.926Z,51.5
2016-05-19T10:08:18.614Z,51.2
2016-05-19T10:08:29.036Z,52.7
2016-05-19T10:08:39.989Z,54.6
2016-05-19T10:08:51.444Z,54.7
2016-05-19T10:09:02.397Z,54.1
2016-05-19T10:09:13.038Z,53
2016-05-19T10:09:23.397Z,52
2016-05-19T10:09:34.163Z,51.9
2016-05-19T10:09:44.791Z,50.8
2016-05-19T10:09:55.322Z,50.7
2016-05-19T10:10:06.103Z,50.2
2016-05-19T10:10:16.775Z,49.8
2016-05-19T10:10:27.416Z,49.9
2016-05-19T10:10:38.041Z,49.7
2016-05-19T10:10:48.683Z,49.7
2016-05-19T10:10:59.355Z,49.7
2016-05-19T10:11:09.980Z,49.7
2016-05-19T10:11:20.308Z,49.7
2016-05-19T10:11:30.652Z,49.7
2016-05-19T10:11:41.277Z,51.6
2016-05-19T10:11:51.843Z,52.8
2016-05-19T10:12:02.405Z,52.3
2016-05-19T10:12:13.108Z,51.3
2016-05-19T10:12:23.436Z,50.9
2016-05-19T10:12:33.843Z,50.8
2016-05-19T10:12:44.080Z,50.4
2016-05-19T10:12:54.393Z,50.7
2016-05-19T10:13:04.674Z,50.4
2016-05-19T10:13:14.986Z,50.5
2016-05-19T10:13:25.314Z,50.1
2016-05-19T10:13:52.036Z,50.5
2016-05-19T10:14:02.677Z,50.6
2016-05-19T10:14:13.302Z,50.8
2016-05-19T10:14:23.927Z,50.4
2016-05-19T10:14:34.567Z,50.3
2016-05-19T10:14:45.351Z,50
2016-05-19T10:14:58.991Z,50.1
2016-05-19T10:15:09.632Z,50.5
2016-05-19T10:15:20.273Z,50.5
2016-05-19T10:15:30.898Z,50.6
2016-05-19T10:15:41.523Z,50.4
2016-05-19T10:15:52.182Z,50.2
2016-05-19T10:16:03.026Z,50.3
2016-05-19T10:16:13.713Z,50.3
2016-05-19T10:16:24.635Z,50.1
2016-05-19T10:16:35.354Z,50.1
2016-05-19T10:16:45.997Z,49.8
2016-05-19T10:16:56.466Z,49.8
2016-05-19T10:17:06.950Z,50
2016-05-19T10:17:17.591Z,49.8
2016-05-19T10:17:28.263Z,49.8
2016-05-19T10:17:39.044Z,49.9
2016-05-19T10:17:49.827Z,49.8
2016-05-19T10:18:00.609Z,50.1
2016-05-19T10:18:11.265Z,49.9
2016-05-19T10:18:22.124Z,49.8
2016-05-19T10:18:32.874Z,50
2016-05-19T10:18:43.421Z,50.1
2016-05-19T10:18:53.924Z,50.2
2016-05-19T10:19:04.424Z,49.9
2016-05-19T10:19:15.284Z,49.9
2016-05-19T10:19:25.909Z,49.9
2016-05-19T10:19:36.549Z,49.7
2016-05-19T10:19:47.177Z,49.7
2016-05-19T10:19:57.833Z,49.9
2016-05-19T10:20:09.458Z,49.8
2016-05-19T10:20:20.099Z,49.8
2016-05-19T10:20:32.646Z,49.7
2016-05-19T10:20:43.427Z,49.8
2016-05-19T10:21:25.399Z,49.7
2016-05-19T10:21:36.055Z,50.1
2016-05-19T10:21:46.901Z,50.5
2016-05-19T10:21:57.588Z,50.6
2016-05-19T10:22:08.354Z,50.5
2016-05-19T10:22:18.995Z,50.3
2016-05-19T10:22:29.682Z,50.2
2016-05-19T10:22:40.385Z,50.2
2016-05-19T10:22:50.873Z,50.1
2016-05-19T10:23:01.654Z,50.1
2016-05-19T10:23:12.279Z,50
2016-05-19T10:23:23.623Z,49.9
2016-05-19T10:23:34.763Z,50.1
2016-05-19T10:23:45.750Z,49.8
2016-05-19T10:23:57.187Z,49.8
2016-05-19T10:24:07.953Z,49.9
2016-05-19T10:24:18.500Z,50.3
2016-05-19T10:24:28.968Z,50.2
2016-05-19T10:24:39.609Z,50.2
2016-05-19T10:24:50.284Z,50.2
2016-05-19T10:25:01.050Z,50
2016-05-19T10:25:11.721Z,49.8
2016-05-19T10:25:22.675Z,50.1
2016-05-19T10:25:33.315Z,50.3
2016-05-19T10:25:43.956Z,50.4
2016-05-19T10:25:54.584Z,50.7
2016-05-19T10:26:05.240Z,50.7
2016-05-19T10:26:15.709Z,50.4
2016-05-19T10:26:26.521Z,50.9
2016-05-19T10:26:37.162Z,50.5
2016-05-19T10:26:47.790Z,50.7
2016-05-19T10:26:58.415Z,50.7
2016-05-19T10:27:09.056Z,50.6
2016-05-19T10:27:19.915Z,50.6
2016-05-19T10:27:30.618Z,50.7
2016-05-19T10:27:41.243Z,50.5
2016-05-19T10:27:51.886Z,50.2
2016-05-19T10:28:02.370Z,50.3
2016-05-19T10:28:12.933Z,50.3
2016-05-19T10:28:23.620Z,50.2
2016-05-19T10:28:34.261Z,50.2
2016-05-19T10:28:45.045Z,49.9
2016-05-19T10:28:55.670Z,49.8
2016-05-19T10:29:06.154Z,49.8
2016-05-19T10:29:16.779Z,49.9
2016-05-19T10:29:27.404Z,49.8
2016-05-19T10:29:38.061Z,49.9
2016-05-19T10:29:48.985Z,49.9
2016-05-19T10:29:59.610Z,49.9
2016-05-19T10:30:10.095Z,50.3
2016-05-19T10:30:20.735Z,50.2
2016-05-19T10:30:31.360Z,50.1
2016-05-19T10:30:41.985Z,50.2
2016-05-19T10:30:52.644Z,50.6
2016-05-19T10:31:03.331Z,50.9
2016-05-19T10:31:13.956Z,50.6
2016-05-19T10:31:24.581Z,50.6
2016-05-19T10:31:35.066Z,50.3
2016-05-19T10:31:45.912Z,50.2
2016-05-19T10:31:56.647Z,50
2016-05-19T10:32:07.319Z,50.3
2016-05-19T10:32:18.022Z,50.2
2016-05-19T10:32:28.647Z,50.1
2016-05-19T10:32:39.303Z,50.3
2016-05-19T10:32:49.915Z,50.2
2016-05-19T10:33:00.712Z,50.4
2016-05-19T10:33:11.181Z,50.3
2016-05-19T10:33:21.868Z,50.4
2016-05-19T10:33:32.509Z,50.9
2016-05-19T13:48:09.600Z,57.3
2016-05-19T13:48:26.897Z,57.2
2016-05-19T13:48:47.788Z,56.8
2016-05-19T13:49:04.775Z,57
2016-05-19T13:49:22.056Z,57.3
2016-05-19T13:49:39.384Z,57.7
2016-05-19T13:49:56.636Z,57.5
2016-05-19T13:50:13.808Z,58
2016-05-19T13:50:31.074Z,57.4
2016-05-19T13:50:48.183Z,57.5
2016-05-19T13:51:05.342Z,57.6
2016-05-19T13:51:22.608Z,58
2016-05-19T13:51:39.921Z,57.5
2016-05-19T13:51:57.189Z,57.8
2016-05-19T13:52:14.392Z,57.5
2016-05-19T13:52:31.674Z,57.9
2016-05-19T13:52:48.924Z,58.1
2016-05-19T13:53:06.207Z,57.5
2016-05-19T13:53:25.879Z,58.6
2016-05-19T13:53:44.738Z,58.6
2016-05-19T13:54:01.616Z,58.4
2016-05-19T13:54:19.210Z,58.7
2016-05-19T13:54:38.788Z,58.7
2016-05-19T13:54:56.557Z,58.7
2016-05-19T13:55:13.900Z,58.3
2016-05-19T13:55:31.150Z,58.9
2016-05-19T13:55:48.478Z,58.7
2016-05-19T13:56:05.715Z,58.6
2016-05-19T13:56:22.918Z,58.6
2016-05-19T13:56:40.199Z,58.9
2016-05-19T13:56:57.468Z,58.7
2016-05-19T13:57:14.640Z,58.7
2016-05-19T13:57:32.015Z,59.1
2016-05-19T13:57:49.155Z,59
2016-05-19T13:58:06.111Z,59.4
2016-05-19T13:58:23.424Z,59.5
2016-05-19T13:58:40.658Z,59.7
2016-05-19T13:58:57.848Z,59.9
2016-05-19T13:59:14.973Z,59.4
2016-05-19T13:59:32.098Z,59.6
2016-05-19T13:59:49.348Z,59.8
2016-05-19T14:00:06.523Z,59.9
2016-05-19T14:00:23.788Z,60.2
2016-05-19T14:00:41.085Z,60.1
2016-05-19T14:00:58.228Z,60.5
2016-05-19T14:01:15.493Z,60.4
2016-05-19T14:01:32.790Z,60.1
2016-05-19T14:01:50.118Z,60.6
2016-05-19T14:02:07.404Z,60.6
2016-05-19T14:02:24.513Z,60.2
2016-05-19T14:02:41.732Z,60.3
2016-05-19T14:02:58.843Z,60.4
2016-05-19T14:03:16.109Z,59.7
2016-05-19T14:03:36.468Z,60.2
2016-05-19T14:03:53.721Z,60.2
2016-05-19T14:04:10.862Z,60.1
2016-05-19T14:04:28.002Z,60.2
2016-05-19T14:04:45.143Z,60.4
2016-05-19T14:05:02.709Z,60.5
2016-05-19T14:05:19.896Z,60.3
2016-05-19T14:05:37.005Z,60.4
2016-05-19T14:05:54.179Z,60.2
2016-05-19T14:06:11.179Z,60.4
2016-05-19T14:06:28.476Z,60.2
2016-05-19T14:06:45.789Z,60.3
2016-05-19T14:07:03.089Z,60.1
2016-05-19T14:07:20.182Z,60.1
2016-05-19T14:07:37.260Z,60
2016-05-19T14:07:54.356Z,60.5
2016-05-19T14:08:11.700Z,60.5
2016-05-19T14:08:33.294Z,60.2
2016-05-19T14:08:50.356Z,59.8
2016-05-19T14:09:08.062Z,59.5
2016-05-19T14:09:25.390Z,59.3
2016-05-19T14:09:42.953Z,59.6
2016-05-19T14:10:00.254Z,59.8
2016-05-19T14:10:17.238Z,59.6
2016-05-19T14:10:34.473Z,59.9
2016-05-19T14:10:51.613Z,60
2016-05-19T14:11:08.896Z,59.7
2016-05-19T14:11:25.881Z,59.8
2016-05-19T14:11:42.693Z,59.7
2016-05-19T14:11:59.492Z,59.7
2016-05-19T14:12:16.648Z,59.8
2016-05-19T14:12:33.617Z,59.6
2016-05-19T14:12:50.945Z,59.6
2016-05-19T14:13:07.590Z,59.7
2016-05-19T14:13:25.043Z,59.9
2016-05-19T14:13:43.512Z,59.6
2016-05-19T14:14:00.811Z,59.8
2016-05-19T14:14:18.076Z,59.7
2016-05-19T14:14:34.795Z,60.1
2016-05-19T14:14:51.748Z,59.9
2016-05-19T14:15:08.797Z,60.4
2016-05-19T14:15:26.000Z,60.2
2016-05-19T14:15:42.656Z,60
2016-05-19T14:15:59.395Z,60.2
2016-05-19T14:16:16.098Z,60.2
2016-05-19T14:16:34.004Z,60.1
2016-05-19T14:16:51.129Z,59.8
2016-05-19T14:17:08.241Z,59.8
2016-05-19T14:17:25.366Z,59.8
2016-05-19T14:17:42.428Z,59.5
2016-05-19T14:17:59.369Z,59.5
2016-05-19T14:18:16.431Z,59.7
2016-05-19T14:18:37.150Z,59.6
2016-05-19T14:18:54.355Z,59.8
2016-05-19T14:19:11.667Z,59.4
2016-05-19T14:19:28.902Z,59.6
2016-05-19T14:19:46.136Z,59.8
2016-05-19T14:20:03.420Z,59.6
2016-05-19T14:20:20.733Z,59.5
2016-05-19T14:20:38.077Z,59.4
2016-05-19T14:20:55.345Z,59.1
2016-05-19T14:21:12.908Z,59.6
2016-05-19T14:21:30.158Z,59.1
2016-05-19T14:21:47.330Z,59.5
2016-05-19T14:22:04.426Z,59.6
2016-05-19T14:22:21.520Z,59.7
2016-05-19T14:22:38.520Z,59.7
2016-05-19T14:22:55.710Z,59.7
2016-05-19T14:23:12.772Z,59.7
2016-05-19T14:23:33.178Z,59.4
2016-05-19T14:23:50.694Z,59.3
2016-05-19T14:24:09.666Z,59.5
2016-05-19T14:24:28.322Z,59
2016-05-19T14:24:45.760Z,59.1
2016-05-19T14:25:02.605Z,59.1
2016-05-19T14:25:19.762Z,58.7
2016-05-19T14:25:36.871Z,58.7
2016-05-19T14:25:53.683Z,58.7
2016-05-19T14:26:10.952Z,58.7
2016-05-19T14:26:27.983Z,58.5
2016-05-19T14:26:45.155Z,58.9
2016-05-19T14:27:02.268Z,58.8
2016-05-19T14:27:19.408Z,58.9
2016-05-19T14:27:36.658Z,59.1
2016-05-19T14:27:53.955Z,58.8
2016-05-19T14:28:11.285Z,59.1
2016-05-19T14:28:28.582Z,59.5
2016-05-19T14:28:49.785Z,59.5
2016-05-19T14:29:06.898Z,59.4
2016-05-19T14:29:24.148Z,59.7
2016-05-19T14:29:41.460Z,59.4
2016-05-19T14:29:58.479Z,59.4
2016-05-19T14:30:15.557Z,58.9
2016-05-19T14:30:32.713Z,59
2016-05-19T14:30:50.307Z,58.9
2016-05-19T14:31:07.654Z,59.6
2016-05-19T14:31:25.029Z,59.4
2016-05-19T14:31:42.154Z,59.4
2016-05-19T14:31:59.390Z,59.6
2016-05-19T14:32:16.687Z,59.7
2016-05-19T14:32:33.968Z,59.6
2016-05-19T14:32:50.906Z,59.8
2016-05-19T14:33:08.190Z,60.2
2016-05-19T14:33:25.299Z,60.2
2016-05-19T14:33:47.940Z,60.1
2016-05-19T14:34:09.786Z,59.5
2016-05-19T14:34:27.036Z,59.4
2016-05-19T14:34:46.457Z,58.8
2016-05-19T14:35:03.804Z,58.6
2016-05-19T14:35:20.882Z,58.5
2016-05-19T14:35:37.976Z,58.3
2016-05-19T14:35:55.151Z,58.5
2016-05-19T14:36:12.323Z,58.3
2016-05-19T14:36:29.604Z,58.7
2016-05-19T14:36:46.807Z,58.3
2016-05-19T14:37:04.060Z,58.4
2016-05-19T14:37:21.154Z,58
2016-05-19T14:37:38.248Z,58.3
2016-05-19T14:37:55.578Z,58.3
2016-05-19T14:38:12.734Z,58.2
2016-05-19T14:38:34.765Z,58.2
2016-05-19T14:38:52.297Z,58.5
2016-05-19T14:39:09.534Z,58.4
2016-05-19T14:39:26.737Z,58.4
2016-05-19T14:39:46.081Z,58.2
2016-05-19T14:40:03.786Z,58.3
2016-05-19T14:40:21.114Z,58.7
2016-05-19T14:40:38.255Z,58.9
2016-05-19T14:40:55.259Z,58.9
2016-05-19T14:41:12.274Z,59.7
2016-05-19T14:41:29.415Z,59.6
2016-05-19T14:41:46.649Z,59.6
2016-05-19T14:42:03.933Z,59.9
2016-05-19T14:42:21.073Z,59.9
2016-05-19T14:42:38.011Z,59.6
2016-05-19T14:42:55.154Z,59.6
2016-05-19T14:43:12.342Z,59.5
2016-05-19T14:43:34.607Z,59.4
2016-05-19T14:43:51.967Z,59.1
2016-05-19T14:44:09.298Z,59
2016-05-19T14:44:26.595Z,58.8
2016-05-19T14:44:43.923Z,59.2
2016-05-19T14:45:01.253Z,59.1
2016-05-19T14:45:18.566Z,59.6
2016-05-19T14:45:35.816Z,59.6
2016-05-19T14:45:52.909Z,59.7
2016-05-19T14:46:10.178Z,59.4
2016-05-19T14:46:27.147Z,59.6
2016-05-19T14:46:44.240Z,59.7
2016-05-19T14:47:01.400Z,59.7
2016-05-19T14:47:18.665Z,59.3
2016-05-19T14:47:35.962Z,59.5
2016-05-19T14:47:53.243Z,59.9
2016-05-19T14:48:10.512Z,59.9
2016-05-19T14:48:27.793Z,59.7
2016-05-19T14:48:49.590Z,59.5
2016-05-19T14:49:06.733Z,59.6
2016-05-19T14:49:23.998Z,59.4
2016-05-19T14:49:40.936Z,59.3
2016-05-19T14:49:58.047Z,59.4
2016-05-19T14:50:15.360Z,59.7
2016-05-19T14:50:32.375Z,59.7
2016-05-19T14:50:49.735Z,59.8
2016-05-19T14:51:07.003Z,59.8
2016-05-19T14:51:24.160Z,59.6
2016-05-19T14:51:41.503Z,59.5
2016-05-19T14:51:58.756Z,59.6
2016-05-19T14:52:16.069Z,59.6
2016-05-19T14:52:33.225Z,59.5
2016-05-19T14:52:50.178Z,59.3
2016-05-19T14:53:07.306Z,59.3
2016-05-19T14:53:24.650Z,59.7
2016-05-19T14:53:47.431Z,59.3
2016-05-19T14:54:04.730Z,59.5
2016-05-19T14:54:21.636Z,59.7
2016-05-19T14:54:39.543Z,59.3
2016-05-19T14:54:56.780Z,59.7
2016-05-19T14:55:13.999Z,59.5
2016-05-19T14:55:31.483Z,59.4
2016-05-19T14:55:48.608Z,59.7
2016-05-19T14:56:05.892Z,59.8
2016-05-19T14:56:23.111Z,59.5
2016-05-19T14:56:40.205Z,59.8
2016-05-19T14:56:56.161Z,59.8
2016-05-19T14:57:13.130Z,59.3
2016-05-19T14:57:30.224Z,59.5
2016-05-19T14:57:47.302Z,59.4
2016-05-19T14:58:04.632Z,59.6
2016-05-19T14:58:21.851Z,59.6
2016-05-19T14:58:44.257Z,59.2
2016-05-19T14:59:01.463Z,59.6
2016-05-19T14:59:18.744Z,59.4
2016-05-19T14:59:35.900Z,59.4
2016-05-19T14:59:53.041Z,59.5
2016-05-19T15:00:10.012Z,59.3
2016-05-19T15:00:27.434Z,59.4
2016-05-19T15:00:44.559Z,59.5
2016-05-19T15:01:01.546Z,59.5
2016-05-19T15:01:18.609Z,59.8
2016-05-19T15:01:34.530Z,59.7
2016-05-19T15:01:51.765Z,59.8
2016-05-19T15:02:08.862Z,59.8
2016-05-19T15:02:25.987Z,59.5
2016-05-19T15:02:43.096Z,59.6
2016-05-19T15:03:00.224Z,59.5
2016-05-19T15:03:17.411Z,59.7
2016-05-19T15:03:39.380Z,59.9
2016-05-19T15:03:56.602Z,59.9
2016-05-19T15:04:13.649Z,59.4
2016-05-19T15:04:31.008Z,59.3
2016-05-19T15:04:48.602Z,59.3
2016-05-19T15:05:05.776Z,59.5
2016-05-19T15:05:23.073Z,59.7
2016-05-19T15:05:40.245Z,59.4
2016-05-19T15:05:57.622Z,59.5
2016-05-19T15:06:14.793Z,59.6
2016-05-19T15:06:32.075Z,59.3
2016-05-19T15:06:49.372Z,59.1
2016-05-19T15:07:06.609Z,59.7
2016-05-19T15:07:23.531Z,59.3
2016-05-19T15:07:40.687Z,59.7
2016-05-19T15:07:57.815Z,59.6
2016-05-19T15:08:14.799Z,59.9
2016-05-19T15:08:34.909Z,59.9
2016-05-19T15:08:52.128Z,59.9
2016-05-19T15:09:10.224Z,59.7
2016-05-19T15:09:28.287Z,59.9
2016-05-19T15:09:45.318Z,60.2
2016-05-19T15:10:02.554Z,60.3
2016-05-19T15:10:19.804Z,60
2016-05-19T15:10:37.164Z,60.3
2016-05-19T15:10:54.258Z,60.1
2016-05-19T15:11:10.198Z,59.9
2016-05-19T15:11:27.479Z,59.9
2016-05-19T15:11:44.714Z,59.7
2016-05-19T15:12:01.826Z,59.6
2016-05-19T15:12:19.107Z,59.7
2016-05-19T15:12:36.373Z,59.6
2016-05-19T15:12:53.670Z,59.6
2016-05-19T15:13:10.937Z,60.1
2016-05-19T15:13:30.078Z,60.2
2016-05-19T15:13:47.094Z,60.2
2016-05-19T15:14:04.378Z,60.4
2016-05-19T15:14:21.550Z,60.1
2016-05-19T15:14:38.769Z,60.4
2016-05-19T15:14:56.034Z,60.8
2016-05-19T15:15:13.286Z,60.6
2016-05-19T15:15:30.521Z,60.6
2016-05-19T15:15:47.692Z,60.7
2016-05-19T15:16:04.837Z,60.3
2016-05-19T15:16:22.009Z,60.8
2016-05-19T15:16:39.259Z,60.3
2016-05-19T15:16:56.590Z,60.4
2016-05-19T15:17:13.871Z,60.4
2016-05-19T15:17:31.137Z,60.2
2016-05-19T15:17:48.684Z,60.5
2016-05-19T15:18:05.826Z,60.4
2016-05-19T15:18:24.467Z,60.4
2016-05-19T15:18:43.498Z,60.5
2016-05-19T15:19:00.626Z,60.9
2016-05-19T15:19:17.658Z,61.1
2016-05-19T15:19:34.923Z,60.7
2016-05-19T15:19:52.204Z,60.6
2016-05-19T15:20:09.269Z,60.5
2016-05-19T15:20:26.550Z,60.4
2016-05-19T15:20:43.941Z,60.4
2016-05-19T15:21:01.209Z,60.6
2016-05-19T15:21:18.288Z,60.2
2016-05-19T15:21:35.522Z,60.4
2016-05-19T15:21:52.663Z,60.1
2016-05-19T15:22:09.900Z,60
2016-05-19T15:22:27.134Z,60.1
2016-05-19T15:22:44.384Z,59.9
2016-05-19T15:23:01.574Z,59.7
2016-05-19T15:23:18.730Z,59.8
2016-05-19T15:23:39.105Z,60
2016-05-19T15:23:56.655Z,60.2
2016-05-19T15:24:14.327Z,59.9
2016-05-19T15:24:32.139Z,60
2016-05-19T15:24:49.639Z,59.9
2016-05-19T15:25:06.970Z,59.8
2016-05-19T15:25:24.252Z,59.7
2016-05-19T15:25:41.595Z,59.8
2016-05-19T15:25:58.692Z,60.2
2016-05-19T15:26:15.802Z,60.2
2016-05-19T15:26:33.067Z,59.8
2016-05-19T15:26:50.348Z,59.6
2016-05-19T15:27:07.350Z,59.5
2016-05-19T15:27:24.538Z,59.9
2016-05-19T15:27:41.804Z,60.3
2016-05-19T15:27:59.166Z,60.3
2016-05-19T15:28:16.416Z,60.4
2016-05-19T15:28:35.494Z,60.3
2016-05-19T15:28:52.588Z,60.8
2016-05-19T15:29:09.871Z,60.3
2016-05-19T15:29:27.184Z,60.8
2016-05-19T15:29:44.324Z,60.2
2016-05-19T15:30:01.655Z,60.2
2016-05-19T15:30:18.780Z,60.1
2016-05-19T15:30:36.046Z,60.2
2016-05-19T15:30:53.374Z,60.4
2016-05-19T15:31:10.627Z,60.2
2016-05-19T15:31:27.752Z,60
2016-05-19T15:31:45.221Z,60.2
2016-05-19T15:32:02.457Z,60.2
2016-05-19T15:32:19.707Z,60.1
2016-05-19T15:32:36.957Z,60.1
2016-05-19T15:32:54.207Z,59.9
2016-05-19T15:33:11.773Z,59.9
2016-05-19T15:33:31.257Z,60
2016-05-19T15:33:48.554Z,60.5
2016-05-19T15:34:05.901Z,60.2
2016-05-19T15:34:23.151Z,60.3
2016-05-19T15:34:40.291Z,60.1
2016-05-19T15:34:57.654Z,60.2
2016-05-19T15:35:14.779Z,60.2
2016-05-19T15:35:32.029Z,59.8
2016-05-19T15:35:49.435Z,59.8
2016-05-19T15:36:06.703Z,59.3
2016-05-19T15:36:24.015Z,59.5
2016-05-19T15:36:41.609Z,59.5
2016-05-19T15:36:58.847Z,59.3
2016-05-19T15:37:16.003Z,59.3
2016-05-19T15:37:33.160Z,59.3
2016-05-19T15:37:50.472Z,59.4
2016-05-19T15:38:07.614Z,59.5
2016-05-19T15:38:24.911Z,59.6
2016-05-19T15:38:41.754Z,59.8
2016-05-19T15:38:59.539Z,60.1
2016-05-19T15:39:16.711Z,59.6
2016-05-19T15:39:35.961Z,59.6
2016-05-19T15:39:53.086Z,60.1
2016-05-19T15:40:10.323Z,60.3
2016-05-19T15:40:27.557Z,60
2016-05-19T15:40:45.120Z,59.9
2016-05-19T15:41:02.357Z,60.3
2016-05-19T15:41:19.467Z,59.5
2016-05-19T15:41:36.717Z,59.6
2016-05-19T15:41:54.154Z,60.2
2016-05-19T15:42:11.266Z,60.4
2016-05-19T15:42:28.235Z,60
2016-05-19T15:42:45.501Z,59.4
2016-05-19T15:43:02.753Z,60.1
2016-05-19T15:43:19.800Z,60.1
2016-05-19T15:43:40.237Z,59.9
2016-05-19T15:43:57.317Z,60.5
2016-05-19T15:44:14.270Z,59.9
2016-05-19T15:44:31.364Z,60.3
2016-05-19T15:44:48.630Z,60.5
2016-05-19T15:45:05.915Z,60.3
2016-05-19T15:45:23.134Z,60.7
2016-05-19T15:45:40.431Z,60.8
2016-05-19T15:45:57.699Z,60.1
2016-05-19T15:46:15.059Z,60.3
2016-05-19T15:46:32.293Z,60.1
2016-05-19T15:46:49.543Z,59.4
2016-05-19T15:47:06.670Z,59.9
2016-05-19T15:47:23.936Z,59.8
2016-05-19T15:47:41.154Z,60
2016-05-19T15:47:58.439Z,60.4
2016-05-19T15:48:15.736Z,60.6
2016-05-19T15:48:35.798Z,61.8
2016-05-19T15:48:53.345Z,61.8
2016-05-19T15:49:10.519Z,62.2
2016-05-19T15:49:27.597Z,62.4
2016-05-19T15:49:44.878Z,62
2016-05-19T15:50:02.256Z,62.5
2016-05-19T15:50:19.803Z,61.6
2016-05-19T15:50:37.147Z,61.7
2016-05-19T15:50:54.491Z,60.9
2016-05-19T15:51:11.790Z,60.4
2016-05-19T15:51:28.900Z,59.9
2016-05-19T15:51:46.197Z,60.6
2016-05-19T15:52:03.371Z,60.1
2016-05-19T15:52:20.636Z,59.8
2016-05-19T15:52:37.746Z,59.6
2016-05-19T15:52:55.027Z,59.4
2016-05-19T15:53:12.327Z,59.6
2016-05-19T15:53:29.639Z,59.3
2016-05-19T15:53:49.405Z,59.5
2016-05-19T15:54:06.939Z,59.6
2016-05-19T15:54:24.705Z,59.8
2016-05-19T15:54:41.970Z,60
2016-05-19T15:55:01.004Z,60.2
2016-05-19T15:55:18.129Z,59.9
2016-05-19T15:55:35.519Z,59.9
2016-05-19T15:55:52.863Z,60.2
2016-05-19T15:56:10.241Z,60.3
2016-05-19T15:56:27.522Z,60.2
2016-05-19T15:56:44.772Z,60.2
2016-05-19T15:57:02.041Z,59.9
2016-05-19T15:57:19.291Z,59.3
2016-05-19T15:57:36.619Z,59
2016-05-19T15:57:54.150Z,59.8
2016-05-19T15:58:11.418Z,59.5
2016-05-19T15:58:32.090Z,59.2
2016-05-19T15:58:49.340Z,59.4
2016-05-19T15:59:06.655Z,59.3
2016-05-19T15:59:23.890Z,59.6
2016-05-19T15:59:41.249Z,58.8
2016-05-19T15:59:58.564Z,58.6
2016-05-19T16:00:15.846Z,59.6
2016-05-19T16:00:33.158Z,59.3
2016-05-19T16:00:50.721Z,59.3
2016-05-19T16:01:08.021Z,59.7
2016-05-19T16:01:25.364Z,59.7
2016-05-19T16:01:42.474Z,59.6
2016-05-19T16:01:59.726Z,59.2
2016-05-19T16:02:17.054Z,59
2016-05-19T16:02:34.273Z,58.7
2016-05-19T16:02:51.538Z,58.4
2016-05-19T16:03:08.463Z,58.5
2016-05-19T16:03:27.463Z,58.5
2016-05-19T16:03:45.822Z,58.3
2016-05-19T16:04:03.122Z,58.3
2016-05-19T16:04:20.247Z,58.7
2016-05-19T16:04:37.607Z,58.7
2016-05-19T16:04:54.950Z,58.8
2016-05-19T16:05:12.218Z,58.8
2016-05-19T16:05:29.531Z,59.4
2016-05-19T16:05:46.656Z,58.7
2016-05-19T16:06:03.940Z,58.6
2016-05-19T16:06:21.018Z,58.3
2016-05-19T16:06:38.580Z,58.6
2016-05-19T16:06:55.830Z,58.8
2016-05-19T16:07:13.083Z,58.6
2016-05-19T16:07:30.333Z,59
2016-05-19T16:07:47.708Z,59.6
2016-05-19T16:08:05.007Z,59
2016-05-19T16:08:22.257Z,58.9
2016-05-19T16:08:41.851Z,58.7
2016-05-19T16:08:59.932Z,58.6
2016-05-19T16:09:18.292Z,58.4
2016-05-19T16:09:35.448Z,58.6
2016-05-19T16:09:52.682Z,58.5
2016-05-19T16:10:09.872Z,58
2016-05-19T16:10:27.122Z,58.3
2016-05-19T16:10:44.372Z,58.3
2016-05-19T16:11:01.625Z,58.3
2016-05-19T16:11:18.906Z,58.2
2016-05-19T16:11:35.812Z,58.1
2016-05-19T16:11:53.109Z,58.6
2016-05-19T16:12:10.425Z,59
2016-05-19T16:12:27.706Z,59.6
2016-05-19T16:12:45.018Z,58.9
2016-05-19T16:13:02.287Z,58.5
2016-05-19T16:13:19.584Z,58.4
2016-05-19T16:13:39.006Z,58.3
2016-05-19T16:13:56.131Z,58.3
2016-05-19T16:14:13.414Z,58.3
2016-05-19T16:14:30.539Z,58.3
2016-05-19T16:14:47.836Z,58.3
2016-05-19T16:15:05.229Z,58.3
2016-05-19T16:15:22.448Z,58.6
2016-05-19T16:15:39.714Z,58.5
2016-05-19T16:15:56.964Z,58.5
2016-05-19T16:16:14.264Z,58.7
2016-05-19T16:16:31.529Z,58.9
2016-05-19T16:16:48.764Z,58.9
2016-05-19T16:17:05.907Z,58.6
2016-05-19T16:17:23.235Z,58.6
2016-05-19T16:17:40.454Z,58.3
2016-05-19T16:17:57.798Z,58.3
2016-05-19T16:18:15.206Z,58.3
2016-05-19T16:18:33.925Z,58.2
2016-05-19T16:18:51.222Z,57.5
2016-05-19T16:19:08.319Z,58.2
2016-05-19T16:19:25.522Z,58
2016-05-19T16:19:42.772Z,58.3
2016-05-19T16:20:00.040Z,58.3
2016-05-19T16:20:17.040Z,58
2016-05-19T16:20:34.322Z,58.3
2016-05-19T16:20:51.618Z,58.3
2016-05-19T16:21:08.871Z,57.4
2016-05-19T16:21:25.825Z,57.4
2016-05-19T16:21:42.950Z,57.1
2016-05-19T16:22:00.186Z,57.4
2016-05-19T16:22:17.436Z,57.5
2016-05-19T16:22:34.686Z,58.1
2016-05-19T16:22:51.998Z,57.6
2016-05-19T16:23:09.189Z,58.1